| time (UTC) | temp C | wind direction | speed KPH | gust KPH | rain 1hr cm | rain 24hr cm | rain mn cm | humidity % | barometer mb |
| 20260507020052 | 18 | 321 | 4.8 | 9.7 | 0.00 | 0.25 | 0.25 | 91 | 1009.7 |
| 20260507014556 | 18 | 0 | 0.0 | 6.4 | 0.00 | 0.25 | 0.25 | 89 | 1009.6 |
| 20260507013059 | 18 | 186 | 0.0 | 4.8 | 0.00 | 0.25 | 0.25 | 89 | 1009.5 |
| 20260507011546 | 18 | 0 | 0.0 | 1.6 | 0.00 | 0.25 | 0.25 | 88 | 1009.4 |
| 20260507010050 | 18 | 197 | 0.0 | 3.2 | 0.00 | 0.25 | 0.25 | 88 | 1009.4 |
| 20260507004556 | 18 | 0 | 0.0 | 4.8 | 0.00 | 0.25 | 0.25 | 87 | 1009.5 |
| 20260507003051 | 18 | 0 | 0.0 | 4.8 | 0.00 | 0.25 | 0.25 | 87 | 1009.6 |
| 20260507001549 | 18 | 0 | 1.6 | 4.8 | 0.00 | 0.25 | 0.25 | 86 | 1009.2 |
| 20260507000053 | 18 | 0 | 0.0 | 4.8 | 0.00 | 0.25 | 0.25 | 86 | 1009.0 |
| 20260506234555 | 18 | 0 | 0.0 | 4.8 | 0.00 | 0.25 | 0.25 | 85 | 1008.8 |
| 20260506233052 | 19 | 0 | 1.6 | 4.8 | 0.00 | 0.25 | 0.25 | 85 | 1008.9 |
| 20260506231551 | 19 | 0 | 0.0 | 8.0 | 0.00 | 0.25 | 0.25 | 84 | 1009.1 |
| 20260506230055 | 19 | 258 | 1.6 | 9.7 | 0.00 | 0.25 | 0.25 | 83 | 1008.6 |
| 20260506224601 | 19 | 0 | 3.2 | 12.9 | 0.00 | 0.25 | 0.25 | 83 | 1008.9 |
| 20260506223049 | 19 | 225 | 6.4 | 19.3 | 0.00 | 0.25 | 0.25 | 83 | 1008.8 |
| 20260506221558 | 20 | 193 | 1.6 | 6.4 | 0.00 | 0.25 | 0.25 | 83 | 1008.8 |
| 20260506220052 | 20 | 177 | 6.4 | 16.1 | 0.00 | 0.25 | 0.25 | 82 | 1008.3 |
| 20260506214607 | 20 | 238 | 3.2 | 16.1 | 0.00 | 0.25 | 0.25 | 82 | 1008.6 |
| 20260506213054 | 20 | 201 | 4.8 | 14.5 | 0.00 | 0.25 | 0.25 | 84 | 1008.4 |
| 20260506211613 | 19 | 180 | 3.2 | 11.3 | 0.00 | 0.25 | 0.25 | 84 | 1008.4 |
| 20260506210051 | 20 | 0 | 1.6 | 20.9 | 0.00 | 0.25 | 0.25 | 82 | 1008.1 |
| 20260506204559 | 20 | 160 | 4.8 | 12.9 | 0.00 | 0.25 | 0.25 | 85 | 1008.1 |
| 20260506203052 | 18 | 171 | 1.6 | 9.7 | 0.00 | 0.25 | 0.25 | 86 | 1008.2 |
| 20260506201552 | 18 | 246 | 3.2 | 12.9 | 0.00 | 0.25 | 0.25 | 86 | 1008.1 |
| 20260506200051 | 18 | 176 | 4.8 | 20.9 | 0.00 | 0.25 | 0.25 | 86 | 1008.1 |
| 20260506194600 | 18 | 15 | 4.8 | 17.7 | 0.00 | 0.25 | 0.25 | 88 | 1008.4 |
| 20260506193057 | 17 | 246 | 0.0 | 16.1 | 0.00 | 0.25 | 0.25 | 89 | 1008.6 |
| 20260506191551 | 17 | 209 | 4.8 | 20.9 | 0.00 | 0.25 | 0.25 | 89 | 1008.7 |
| 20260506190052 | 17 | 208 | 1.6 | 11.3 | 0.00 | 0.25 | 0.25 | 90 | 1008.8 |
| 20260506184551 | 17 | 238 | 3.2 | 16.1 | 0.00 | 0.25 | 0.25 | 90 | 1009.0 |
| 20260506183059 | 17 | 217 | 3.2 | 12.9 | 0.00 | 0.25 | 0.25 | 91 | 1009.0 |
| 20260506181551 | 16 | 273 | 4.8 | 17.7 | 0.00 | 0.25 | 0.25 | 91 | 1009.2 |
| 20260506180055 | 16 | 169 | 1.6 | 12.9 | 0.00 | 0.25 | 0.25 | 92 | 1009.2 |
| 20260506174553 | 16 | 186 | 1.6 | 11.3 | 0.00 | 0.25 | 0.25 | 93 | 1009.3 |
| 20260506173051 | 16 | 171 | 1.6 | 11.3 | 0.00 | 0.25 | 0.25 | 93 | 1009.5 |
| 20260506171559 | 16 | 214 | 4.8 | 14.5 | 0.00 | 0.25 | 0.25 | 93 | 1009.5 |
| 20260506170052 | 16 | 257 | 3.2 | 11.3 | 0.05 | 0.25 | 0.25 | 93 | 1009.6 |
| 20260506164558 | 16 | 215 | 0.0 | 14.5 | 0.10 | 0.25 | 0.25 | 93 | 1009.6 |
| 20260506163103 | 16 | 169 | 4.8 | 12.9 | 0.13 | 0.25 | 0.25 | 93 | 1009.8 |
| 20260506161545 | 16 | 184 | 4.8 | 14.5 | 0.15 | 0.25 | 0.25 | 94 | 1010.0 |
| 20260506160053 | 16 | 106 | 3.2 | 11.3 | 0.13 | 0.20 | 0.20 | 93 | 1010.0 |
| 20260506154610 | 16 | 213 | 3.2 | 8.0 | 0.13 | 0.15 | 0.15 | 91 | 1010.6 |
| 20260506153048 | 16 | 0 | 0.0 | 6.4 | 0.13 | 0.13 | 0.13 | 91 | 1010.8 |
| 20260506151548 | 16 | 90 | 1.6 | 19.3 | 0.10 | 0.10 | 0.10 | 89 | 1010.8 |
| 20260506150056 | 16 | 246 | 1.6 | 14.5 | 0.08 | 0.08 | 0.08 | 87 | 1010.3 |
| 20260506144602 | 17 | 197 | 4.8 | 17.7 | 0.03 | 0.03 | 0.03 | 85 | 1010.6 |
| 20260506143051 | 17 | 252 | 1.6 | 11.3 | 0.00 | 0.00 | 0.00 | 83 | 1010.7 |
| 20260506141550 | 17 | 132 | 3.2 | 14.5 | 0.00 | 0.00 | 0.00 | 81 | 1010.4 |
| 20260506140058 | 18 | 253 | 4.8 | 19.3 | 0.00 | 0.00 | 0.00 | 78 | 1010.6 |
| 20260506134553 | 18 | 182 | 4.8 | 20.9 | 0.00 | 0.00 | 0.00 | 76 | 1010.4 |
| 20260506133057 | 18 | 223 | 3.2 | 16.1 | 0.00 | 0.00 | 0.00 | 78 | 1010.2 |
| 20260506131552 | 18 | 217 | 4.8 | 20.9 | 0.00 | 0.00 | 0.00 | 78 | 1010.3 |
| 20260506130053 | 18 | 158 | 4.8 | 20.9 | 0.00 | 0.00 | 0.00 | 77 | 1010.4 |
| 20260506124554 | 18 | 252 | 1.6 | 19.3 | 0.00 | 0.00 | 0.00 | 79 | 1010.4 |
| 20260506123054 | 18 | 100 | 4.8 | 19.3 | 0.00 | 0.00 | 0.00 | 78 | 1010.8 |
| 20260506121553 | 18 | 201 | 6.4 | 20.9 | 0.00 | 0.00 | 0.00 | 78 | 1010.4 |
| 20260506120052 | 18 | 204 | 3.2 | 16.1 | 0.00 | 0.00 | 0.00 | 78 | 1010.4 |
| 20260506114558 | 18 | 130 | 8.0 | 22.5 | 0.00 | 0.00 | 0.00 | 79 | 1010.2 |
| 20260506113053 | 17 | 218 | 1.6 | 12.9 | 0.00 | 0.00 | 0.00 | 79 | 1010.1 |
| 20260506111551 | 17 | 223 | 1.6 | 17.7 | 0.00 | 0.00 | 0.00 | 79 | 1010.1 |
| 20260506110050 | 17 | 173 | 3.2 | 19.3 | 0.00 | 0.00 | 0.00 | 80 | 1010.1 |
| 20260506104556 | 17 | 200 | 4.8 | 20.9 | 0.00 | 0.00 | 0.00 | 79 | 1010.0 |
| 20260506103057 | 17 | 159 | 3.2 | 16.1 | 0.00 | 0.00 | 0.00 | 80 | 1010.1 |
| 20260506101552 | 17 | 152 | 6.4 | 16.1 | 0.00 | 0.00 | 0.00 | 80 | 1009.9 |
| 20260506100051 | 17 | 214 | 1.6 | 12.9 | 0.00 | 0.00 | 0.00 | 80 | 1009.9 |
| 20260506094547 | 17 | 198 | 6.4 | 16.1 | 0.00 | 0.00 | 0.00 | 79 | 1009.9 |
| 20260506093048 | 18 | 123 | 3.2 | 11.3 | 0.00 | 0.00 | 0.00 | 78 | 1009.9 |
| 20260506091554 | 18 | 37 | 1.6 | 16.1 | 0.00 | 0.00 | 0.00 | 77 | 1010.1 |
| 20260506090050 | 18 | 0 | 3.2 | 14.5 | 0.00 | 0.00 | 0.00 | 76 | 1009.9 |
| 20260506084554 | 18 | 245 | 4.8 | 25.7 | 0.00 | 0.00 | 0.00 | 76 | 1010.0 |
| 20260506083058 | 18 | 195 | 4.8 | 12.9 | 0.00 | 0.00 | 0.00 | 76 | 1009.9 |
| 20260506081552 | 18 | 196 | 1.6 | 19.3 | 0.00 | 0.00 | 0.00 | 76 | 1010.0 |
| 20260506073054 | 18 | 200 | 0.0 | 14.5 | 0.00 | 0.00 | 0.00 | 76 | 1010.2 |
| 20260506071551 | 18 | 0 | 0.0 | 12.9 | 0.00 | 0.00 | 0.00 | 76 | 1010.3 |
| 20260506061555 | 19 | 225 | 3.2 | 8.0 | 0.00 | 0.00 | 0.00 | 74 | 1010.8 |
| 20260506044557 | 20 | 191 | 0.0 | 12.9 | 0.00 | 0.00 | 0.00 | 66 | 1011.3 |
| 20260506043044 | 20 | 0 | 1.6 | 12.9 | 0.00 | 0.00 | 0.00 | 65 | 1011.3 |
| 20260506041553 | 20 | 0 | 0.0 | 8.0 | 0.00 | 0.00 | 0.00 | 64 | 1011.3 |
| 20260506040050 | 20 | 0 | 1.6 | 8.0 | 0.00 | 0.00 | 0.00 | 64 | 1011.2 |
| 20260506034547 | 20 | 0 | 1.6 | 8.0 | 0.00 | 0.00 | 0.00 | 63 | 1011.2 |
| 20260506033052 | 20 | 0 | 0.0 | 4.8 | 0.00 | 0.00 | 0.00 | 63 | 1011.1 |
| 20260506031551 | 20 | 184 | 0.0 | 6.4 | 0.00 | 0.00 | 0.00 | 62 | 1011.0 |
| 20260506030059 | 20 | 184 | 1.6 | 6.4 | 0.00 | 0.00 | 0.00 | 62 | 1011.1 |
| 20260506024552 | 21 | 204 | 1.6 | 6.4 | 0.00 | 0.00 | 0.00 | 62 | 1011.2 |
| 20260506023058 | 21 | 0 | 0.0 | 6.4 | 0.00 | 0.00 | 0.00 | 60 | 1011.4 |
| 20260506021555 | 21 | 0 | 0.0 | 8.0 | 0.00 | 0.00 | 0.00 | 60 | 1011.3 |